Saturday, July 26, 2014, 1:11 PM EDT

KRDG, Reading Regional Airport

Location: Reading, PA, United States Lat: 40.367
Local Time: 1:11 PM EDT (17:11 GMT) Lon: -75.967
Time Zone: US/Eastern Elev: 344 ft

Show me the last for .
Show Decoded

2014-07-26 12:54 METAR KRDG 261654Z 15003KT 10SM CLR 27/16 A2997 RMK AO2 SLP149 T02670156 =
2014-07-26 11:54 METAR KRDG 261554Z VRB04KT 10SM CLR 24/17 A2999 RMK AO2 SLP157 T02390167 =
2014-07-26 10:54 METAR KRDG 261454Z 28006KT 10SM CLR 23/17 A3000 RMK AO2 SLP161 60000 T02330167
                 55001 =
2014-07-26 09:54 METAR KRDG 261354Z 00000KT 10SM CLR 22/16 A3000 =
2014-07-26 08:54 METAR KRDG 261254Z 00000KT 10SM -RA FEW044 SCT080 OVC120 19/17 A2999 RMK AO2
                 RAB18 SLP159 P0000 T01940167 =
2014-07-26 07:54 METAR KRDG 261154Z 00000KT 10SM FEW044 SCT080 SCT120 19/16 A3000 RMK AO2 SLP162
                 T01940156 10194 20172 51004 =
2014-07-26 06:54 METAR KRDG 261054Z 00000KT 10SM OVC042 18/16 A3000 RMK AO2 SLP162 T01830156 =
2014-07-26 05:54 METAR KRDG 260954Z 00000KT 10SM SCT049 BKN065 BKN080 18/14 A3000 =
2014-07-26 04:54 METAR KRDG 260854Z 00000KT 10SM SCT075 17/14 A2999 RMK AO2 SLP158 T01720144
                 56006 =
2014-07-26 03:54 METAR KRDG 260754Z 00000KT 10SM CLR 17/14 A3000 RMK AO2 SLP159 T01720139 =
2014-07-26 02:54 METAR KRDG 260654Z 34003KT 10SM CLR 17/14 A3000 RMK AO2 SLP160 T01720144 =
2014-07-26 01:54 METAR KRDG 260554Z 00000KT 10SM CLR 17/14 A3001 RMK AO2 SLP165 T01720144 10244
                 20167 52003 =
2014-07-26 00:54 METAR KRDG 260454Z 00000KT 10SM CLR 18/13 A3001 RMK AO2 SLP165 T01780133
                 402720128 =
2014-07-25 22:54 METAR KRDG 260254Z 00000KT 10SM CLR 21/13 A3000 RMK AO2 SLP162 T02060128 50000 =
2014-07-25 21:54 METAR KRDG 260154Z 20003KT 10SM CLR 22/12 A3001 RMK AO2 SLP166 T02170122 =
2014-07-25 20:54 METAR KRDG 260054Z AUTO 21003KT 10SM CLR 23/12 A3001 RMK AO2 SLP166 T02330117 =
2014-07-25 19:54 METAR KRDG 252354Z AUTO 23005KT 10SM CLR 24/12 A3000 RMK AO2 SLP162 T02440117
                 10272 20244 53004 =
2014-07-25 18:54 METAR KRDG 252254Z AUTO 27005KT 10SM CLR 26/10 A2999 RMK AO2 SLP158 T02610100 =
2014-07-25 17:54 METAR KRDG 252154Z AUTO 27007KT 10SM CLR 27/11 A2998 RMK AO2 SLP156 T02670106 =
2014-07-25 16:54 METAR KRDG 252054Z AUTO 29004KT 10SM CLR 27/12 A2999 RMK AO2 SLP157 T02720122
                 55011 =
2014-07-25 15:54 METAR KRDG 251954Z AUTO 26003KT 10SM CLR 27/12 A2998 RMK AO2 SLP157 T02670122 =
2014-07-25 14:54 METAR KRDG 251854Z AUTO 32003KT 10SM CLR 27/13 A3000 =
2014-07-25 13:54 METAR KRDG 251754Z 22005KT 10SM CLR 26/13 A3002 RMK AO2 SLP168 T02560128 10261
                 20172 56014 =

Support USWX by starting your Amazon purchase here.